Station: NARACOORTE AP

  Atmospheric Gas Attenuation - ITU Rec 676-11   --------------- db/100km ---------------
Date Time Temp RH % AH g/m3 Dew Point Wind Direction Speed kph Gust kph Barometer mB Rainfall Since 9am 24GHz 47GHz 76GHz 122GHz 134GHz 241GHz
16 19:00 17.3 65 9.58 10.7 26 35 1017.6 0 21.5 26.6 42.1 110.6 107.0 369.1
16 18:50 17.6 64 9.6 10.7 20 22 1017.6 0 21.5 26.5 42.0 110.4 106.9 368.6
16 18:40 17.8 63 9.56 10.7 26 32 1017.5 0 21.4 26.4 41.8 109.7 106.1 365.8
16 18:30 17.5 65 9.69 10.9 30 37 1017.5 0 21.7 26.7 42.4 111.5 108.2 373.1
16 18:20 18 62 9.52 10.6 35 41 1017.5 0 21.3 26.3 41.5 109.0 105.3 363.1
16 18:10 18.1 64 9.89 11.2 30 33 1017.5 0 22.1 26.9 42.9 112.7 109.9 379.4
16 18:00 17.3 64 9.43 10.4 35 48 1017.5 0 21.2 26.4 41.5 109.0 105.1 362.2
16 17:50 18.5 59 9.33 10.3 35 43 1017.4 0 20.9 25.8 40.5 106.3 102.2 352.3
16 17:40 18.5 59 9.33 10.3 30 35 1017.5 0 20.9 25.9 40.5 106.3 102.2 352.3
16 17:30 18.6 58 9.23 10.2 32 39 1017.5 0 20.7 25.7 40.1 105.2 100.8 347.4
16 17:20 19.2 58 9.56 10.7 33 37 1017.5 0 21.4 26.0 41.0 107.8 104.2 359.4
16 17:10 18.4 57 8.96 9.7 39 44 1017.5 0 20.1 25.3 39.1 102.6 97.6 336.3
16 17:00 18.9 55 8.91 9.7 32 43 1017.6 0 20.0 25.1 38.7 101.5 96.4 332.0
16 16:50 18.2 59 9.17 10.1 35 39 1017.7 0 20.6 25.7 40.0 105.1 100.5 346.5
16 16:40 18.8 56 9.02 9.8 30 32 1017.6 0 20.2 25.3 39.2 102.8 97.9 337.3
16 16:30 18.3 58 9.07 9.9 32 41 1017.7 0 20.4 25.5 39.6 103.9 99.1 341.6
16 16:20 18.6 57 9.07 9.9 32 35 1017.7 0 20.3 25.4 39.5 103.5 98.8 340.4
16 16:10 18.8 56 9.02 9.8 37 44 1017.7 0 20.2 25.3 39.2 102.8 97.9 337.3
16 16:00 19.3 54 8.96 9.8 32 41 1017.6 0 20.1 25.1 38.7 101.5 96.5 332.6
16 15:50 19.4 52 8.68 9.3 37 41 1017.6 0 19.5 24.6 37.6 98.6 92.9 320.0
16 15:40 19.4 52 8.68 9.3 35 41 1017.6 0 19.5 24.6 37.6 98.6 92.9 320.0
16 15:30 19.4 52 8.68 9.3 33 46 1017.7 0 19.5 24.6 37.6 98.6 92.9 320.0
16 15:20 20.3 49 8.62 9.2 32 43 1017.7 0 19.3 24.3 37.0 96.9 91.2 313.9
16 15:10 20.4 49 8.67 9.3 28 37 1017.7 0 19.4 24.3 37.1 97.3 91.7 315.6
16 15:00 20.1 47 8.17 8.4 28 43 1017.9 0 18.4 23.7 35.4 92.8 86.0 295.7
16 14:50 19.7 49 8.32 8.7 28 35 1017.9 0 18.7 24.0 36.1 94.7 88.2 303.5
16 14:40 19.6 49 8.27 8.6 30 37 1018.1 0 18.6 24.0 36.0 94.3 87.7 301.8
16 14:30 19.6 49 8.27 8.6 32 41 1018.2 0 18.6 24.0 36.0 94.3 87.7 301.9
16 14:20 19.3 50 8.29 8.6 30 33 1018.2 0 18.7 24.1 36.2 94.9 88.3 303.8
16 14:10 19.2 50 8.24 8.5 32 37 1018.2 0 18.6 24.0 36.1 94.5 87.8 302.1
16 14:00 19.8 48 8.2 8.5 32 41 1018.4 0 18.5 23.8 35.7 93.4 86.7 298.2
16 13:50 18.6 52 8.28 8.6 39 43 1018.5 0 18.7 24.2 36.5 95.6 89.0 306.1
16 13:40 18.5 52 8.23 8.5 26 32 1018.6 0 18.6 24.2 36.4 95.3 88.5 304.4
16 13:30 17.6 55 8.25 8.5 30 41 1018.8 0 18.7 24.5 36.9 96.6 89.8 308.8
16 13:20 17.7 55 8.3 8.6 33 39 1018.9 0 18.8 24.5 37.0 97.0 90.3 310.6
16 13:10 18.1 51 7.88 7.8 32 35 1018.9 0 17.9 23.8 35.3 92.3 84.7 291.0
16 13:00 17.9 54 8.24 8.5 26 33 1019.1 0 18.6 24.4 36.7 96.1 89.3 307.2
16 12:50 16.9 57 8.2 8.3 32 35 1019.1 0 18.6 24.6 37.0 96.9 90.0 309.4
16 12:40 16.8 56 8.01 8 26 32 1019.1 0 18.2 24.3 36.3 95.1 87.7 301.4
16 12:30 17.3 56 8.25 8.4 28 39 1019.1 0 18.7 24.6 37.0 97.0 90.2 310.0
16 12:20 17.1 56 8.15 8.3 28 32 1019.2 0 18.5 24.5 36.7 96.2 89.1 306.4
16 12:10 17 56 8.1 8.2 22 24 1019.1 0 18.4 24.4 36.6 95.8 88.6 304.6
16 12:00 17.5 54 8.05 8.1 30 39 1019.1 0 18.2 24.2 36.2 94.7 87.4 300.5
16 11:50 17 55 7.96 7.9 37 41 1019.2 0 18.1 24.2 36.1 94.4 86.9 298.5
16 11:40 16.9 53 7.62 7.3 30 33 1019.1 0 17.4 23.7 34.8 91.1 82.8 284.2
16 11:30 17.1 52 7.57 7.2 28 41 1019.1 0 17.2 23.6 34.5 90.4 82.0 281.3
16 11:20 17.2 50 7.32 6.7 28 32 1019.1 0 16.7 23.2 33.6 87.8 78.8 270.3
16 11:10 16.7 50 7.11 6.2 24 30 1019.1 0 16.3 23.0 33.0 86.3 76.8 263.1
16 11:00 16.9 51 7.33 6.7 26 35 1019.1 0 16.7 23.3 33.7 88.2 79.3 271.8
16 10:50 16.3 52 7.21 6.4 33 41 1019.2 0 16.5 23.3 33.6 87.7 78.4 268.7
16 10:40 16.3 51 7.08 6.2 30 32 1019.2 0 16.2 23.1 33.1 86.4 76.8 263.1
16 10:30 16.3 51 7.08 6.2 28 37 1019.2 0 16.2 23.1 33.1 86.4 76.8 263.1
16 10:20 16 51 6.95 5.9 28 33 1019.2 0 16.0 23.0 32.7 85.5 75.5 258.6
16 10:10 15.7 52 6.96 5.9 28 30 1019.2 0 16.0 23.0 32.9 85.9 75.9 260.0
16 10:00 15.6 53 7.05 6.1 30 39 1019.2 0 16.2 23.2 33.3 86.9 77.1 264.2
16 09:50 15.3 54 7.05 6.1 30 33 1019.2 0 16.2 23.3 33.4 87.2 77.4 265.1
16 09:40 15.2 55 7.14 6.2 32 37 1019.2 0 16.4 23.4 33.8 88.2 78.6 269.4
16 09:30 15.1 55 7.1 6.1 26 35 1019.3 0 16.3 23.4 33.6 88.0 78.2 268.0
16 09:20 15 54 6.92 5.8 32 35 1019.3 0 16.0 23.2 33.0 86.3 76.1 260.6
16 09:10 15.2 54 7.01 6 26 33 1019.2 0 16.1 23.2 33.3 86.9 77.0 263.8
16 09:00 14.9 55 7.01 6 28 37 1019.2 0 16.2 23.3 33.4 87.3 77.3 264.7
16 08:50 14.9 54 6.88 5.7 28 32 1019.1 0 15.9 23.1 32.9 86.0 75.7 259.1
16 08:40 15 54 6.92 5.8 28 32 1019 0 16.0 23.2 33.0 86.2 76.1 260.5
16 08:30 15.3 52 6.79 5.5 26 37 1018.9 0 15.7 22.9 32.4 84.6 74.2 254.0
16 08:20 15.8 52 7 6 26 32 1018.9 0 16.1 23.1 33.0 86.2 76.3 261.3
16 08:10 14.8 56 7.09 6.1 19 20 1018.8 0 16.3 23.5 33.7 88.1 78.4 268.4
16 08:00 14.2 57 6.96 5.8 22 30 1018.6 0 16.1 23.4 33.5 87.5 77.4 264.8
16 07:50 14 58 7 5.9 26 28 1018.5 0 16.2 23.5 33.7 88.1 78.0 267.1
16 07:40 13.7 60 7.11 6.1 22 26 1018.4 0 16.4 23.8 34.2 89.5 79.7 272.9
16 07:30 13.5 61 7.14 6.1 17 22 1018.3 0 16.5 23.9 34.4 90.0 80.3 274.9
16 07:20 13.4 63 7.32 6.5 15 17 1018.2 0 16.9 24.2 35.2 92.0 82.7 283.2
16 07:10 13.3 65 7.51 6.9 11 15 1018.1 0 17.3 24.5 35.9 94.1 85.2 292.1
16 07:00 13 66 7.49 6.8 11 15 1018 0 17.3 24.5 36.0 94.2 85.2 292.3
16 06:50 12.8 67 7.51 6.8 11 13 1017.9 0 17.3 24.6 36.2 94.6 85.7 293.9
16 06:40 12.6 67 7.41 6.6 13 15 1017.7 0 17.1 24.5 35.8 93.8 84.6 290.0
16 06:30 12.6 67 7.41 6.6 13 17 1017.6 0 17.1 24.5 35.8 93.8 84.6 290.0
16 06:20 12.5 67 7.37 6.5 15 17 1017.5 0 17.0 24.5 35.7 93.5 84.2 288.6
16 06:10 12.4 68 7.43 6.7 17 19 1017.3 0 17.2 24.6 36.0 94.2 85.1 291.6
16 06:00 12.1 69 7.4 6.6 15 17 1017.3 0 17.1 24.6 36.0 94.3 85.0 291.3
16 05:50 12.2 69 7.45 6.7 13 15 1017.2 0 17.2 24.6 36.2 94.7 85.5 293.2
16 05:40 12.3 69 7.49 6.8 13 15 1017.2 0 17.3 24.7 36.3 95.0 86.0 294.7
16 05:30 12.4 69 7.54 6.9 13 17 1017.1 0 17.4 24.7 36.4 95.4 86.5 296.5
16 05:20 12.5 69 7.59 7 15 17 1016.9 0 17.5 24.8 36.6 95.7 87.0 298.4
16 05:10 12.3 71 7.71 7.2 15 19 1016.8 0 17.8 25.0 37.1 97.2 88.8 304.6
16 04:50 11.9 74 7.84 7.4 15 17 1016.5 0 18.1 25.3 37.8 99.1 90.9 312.1
16 04:40 11.5 74 7.64 7 13 15 1016.4 0 17.6 25.1 37.2 97.4 88.8 304.4
16 04:30 11.9 74 7.84 7.4 15 17 1016.4 0 18.1 25.3 37.8 99.1 90.9 312.0
16 04:20 12.3 75 8.14 8 15 17 1016.3 0 18.7 25.7 38.8 101.8 94.4 324.3
16 04:10 12.2 78 8.42 8.5 15 19 1016.4 0 19.3 26.2 40.0 105.0 98.3 337.9
16 04:00 11.7 80 8.37 8.4 13 15 1016.4 0 19.2 26.3 40.1 105.1 98.3 337.7
16 03:50 11.6 81 8.42 8.5 13 13 1016.4 0 19.3 26.4 40.3 105.8 99.1 340.5
16 03:40 11.5 82 8.47 8.5 11 13 1016.4 0 19.4 26.5 40.6 106.5 99.9 343.3
16 03:30 11.3 84 8.57 8.7 13 15 1016.6 0 19.6 26.7 41.1 107.9 101.5 349.0
16 03:20 10.8 85 8.4 8.4 13 15 1016.6 0 19.3 26.6 40.7 106.7 99.8 343.1
16 03:10 10.6 86 8.4 8.4 15 15 1016.5 0 19.3 26.6 40.8 106.9 100.1 343.9
16 03:00 10.4 88 8.48 8.5 15 17 1016.7 0 19.5 26.8 41.2 108.1 101.5 348.7
16 02:50 9.6 88 8.06 7.7 13 13 1016.8 0 18.6 26.4 39.9 104.5 96.7 332.0
16 02:40 9.5 89 8.1 7.8 11 13 1016.9 0 18.7 26.5 40.1 105.1 97.4 334.4
16 02:30 8.7 89 7.7 7 13 15 1017 0 17.9 26.0 38.8 101.7 92.9 318.5
16 02:20 8.5 88 7.52 6.6 13 15 1017 0 17.5 25.8 38.2 100.0 90.7 310.6

Last Refresh: 16-Jan-2021 19:14:46

Most of the information presented on this site is sourced from the Bureau of Meteorology.  Copyright in all material sourced from the Bureau of Meteorology resides with the Commonwealth of Australia.